KMFI/MFI METAR and TAF weather

Enter ICAO airport designator
Station Type Date Time Source
KMFI METAR 2019/12/08 18:54 UTC NOAA

KMFI 081854Z AUTO 26004KT 10SM CLR 03/M02 A2972 RMK AO2 SLP076 T00281017


Station Type Date Time Source
KMFI Decoded METAR 2019/12/08 18:54 UTC NOAA

MARSHFIELD MUNICIPAL AIRPORT, WI, United States (KMFI) 44-38N 90-11W 379M
Dec 08, 2019 - 01:54 PM EST / 2019.12.08 1854 UTC
Wind: from the W (260 degrees) at 5 MPH (4 KT):0
Visibility: 10 mile(s):0
Sky conditions: clear
Temperature: 37.0 F (2.8 C)
Dew Point: 28.9 F (-1.7 C)
Relative Humidity: 72%
Pressure (altimeter): 29.72 in. Hg (1006 hPa)
ob: KMFI 081854Z AUTO 26004KT 10SM CLR 03/M02 A2972 RMK AO2 SLP076 T00281017
cycle: 19

Station Type Date Time Source
KMFI TAF UTC NOAA

Error!

Example: see airport list